Time;durP1;ratioP1;P1;durP2;ratioP2;P2;SDS_P1;SDS_P2;PMS_P1;PMS_P2;Temp;Humidity;BMP_temperature;BMP_pressure;BME280_temperature;BME280_humidity;BME280_pressure;Samples;Min_cycle;Max_cycle;Signal;HPM_P1;HPM_P2
2022/06/19 00:02:05;;;;;;;10.98;4.13;;;19.00;70.40;;;;;;5079133;28;20476;-64
2022/06/19 00:04:32;;;;;;;12.52;4.03;;;18.90;70.60;;;;;;5079041;28;20032;-62
2022/06/19 00:06:59;;;;;;;14.95;4.32;;;18.90;70.10;;;;;;5078563;28;20052;-62
2022/06/19 00:09:26;;;;;;;10.32;3.40;;;18.90;70.20;;;;;;5096671;28;20040;-62
2022/06/19 00:11:52;;;;;;;11.73;4.80;;;18.90;70.40;;;;;;5098984;28;20035;-62
2022/06/19 00:14:18;;;;;;;16.35;4.43;;;18.80;70.20;;;;;;5097768;28;20048;-62
2022/06/19 00:16:44;;;;;;;14.07;4.63;;;18.80;69.80;;;;;;5099039;28;20463;-67
2022/06/19 00:19:10;;;;;;;13.20;3.88;;;18.70;70.00;;;;;;5098422;28;20448;-62
2022/06/19 00:21:35;;;;;;;11.95;4.38;;;18.70;69.70;;;;;;5078806;28;20070;-62
2022/06/19 00:24:01;;;;;;;11.35;4.00;;;18.70;69.70;;;;;;5078520;28;20017;-61
2022/06/19 00:26:27;;;;;;;16.80;4.30;;;18.60;70.20;;;;;;5078113;28;20090;-62
2022/06/19 00:28:53;;;;;;;11.77;4.30;;;18.60;69.80;;;;;;5078270;28;20373;-66
2022/06/19 00:31:19;;;;;;;11.88;3.63;;;18.60;70.00;;;;;;5078449;28;20028;-62
2022/06/19 00:33:45;;;;;;;12.93;3.75;;;18.60;70.10;;;;;;5084368;28;20464;-61
2022/06/19 00:36:11;;;;;;;12.38;3.83;;;18.60;70.00;;;;;;5098834;28;20036;-61
2022/06/19 00:38:37;;;;;;;10.70;4.00;;;18.50;70.30;;;;;;5098743;28;20020;-63
2022/06/19 00:41:03;;;;;;;12.63;4.00;;;18.50;69.90;;;;;;5098814;28;20039;-63
2022/06/19 00:43:29;;;;;;;10.23;4.15;;;18.50;70.20;;;;;;5098902;28;20028;-63
2022/06/19 00:46:03;;;;;;;14.80;4.10;;;18.50;69.90;;;;;;5098092;28;20035;-62
2022/06/19 00:48:31;;;;;;;;;;;18.50;70.20;;;;;;5082612;28;20020;-63
2022/06/19 00:51:00;;;;;;;13.50;3.60;;;18.50;70.80;;;;;;5078257;28;19908;-62
2022/06/19 00:53:45;;;;;;;11.38;4.07;;;18.40;70.40;;;;;;5078002;28;20081;-62
2022/06/19 00:56:18;;;;;;;10.68;3.90;;;18.40;70.50;;;;;;5077940;28;20059;-62
2022/06/19 00:58:46;;;;;;;11.43;3.55;;;18.30;70.20;;;;;;5078313;28;20064;-62
2022/06/19 01:01:16;;;;;;;11.48;3.72;;;18.30;70.50;;;;;;5082264;28;20032;-67
2022/06/19 01:04:05;;;;;;;11.35;3.50;;;18.30;70.90;;;;;;5097651;28;20032;-62
2022/06/19 01:06:32;;;;;;;10.25;3.28;;;18.30;70.70;;;;;;5081052;28;20028;-62
2022/06/19 01:08:58;;;;;;;9.85;3.60;;;18.20;70.80;;;;;;5077738;28;20025;-63
2022/06/19 01:11:28;;;;;;;11.80;3.72;;;18.30;70.90;;;;;;5077899;28;20090;-62
2022/06/19 01:13:54;;;;;;;15.05;4.32;;;18.20;71.00;;;;;;5077902;28;20024;-67
2022/06/19 01:16:20;;;;;;;11.88;3.65;;;18.20;70.90;;;;;;5077688;28;20388;-67
2022/06/19 01:18:46;;;;;;;14.07;3.42;;;18.20;71.50;;;;;;5079708;28;20020;-62
2022/06/19 01:21:30;;;;;;;13.20;3.72;;;18.20;71.80;;;;;;5098255;28;20028;-64
2022/06/19 01:24:16;;;;;;;12.75;3.90;;;18.10;71.20;;;;;;5097811;28;20050;-62
2022/06/19 01:26:47;;;;;;;11.32;3.92;;;18.10;72.20;;;;;;5096360;28;20051;-62
2022/06/19 01:29:14;;;;;;;11.77;4.05;;;18.00;72.00;;;;;;5097884;28;20020;-64
2022/06/19 01:31:42;;;;;;;10.02;3.78;;;17.90;72.30;;;;;;5097506;28;20024;-62
2022/06/19 01:34:28;;;;;;;13.32;3.72;;;17.90;73.00;;;;;;5097635;28;20020;-62
2022/06/19 01:37:20;;;;;;;11.48;3.78;;;17.80;73.40;;;;;;5077263;28;20058;-62
2022/06/19 01:40:11;;;;;;;13.18;4.18;;;17.80;73.20;;;;;;5077352;28;20082;-62
2022/06/19 01:42:38;;;;;;;9.82;3.45;;;17.80;73.60;;;;;;5077234;28;20085;-61
2022/06/19 01:45:06;;;;;;;10.88;3.60;;;17.80;73.90;;;;;;5077486;28;20093;-62
2022/06/19 01:47:32;;;;;;;10.55;4.07;;;17.80;74.30;;;;;;5076963;28;20602;-61
2022/06/19 01:50:00;;;;;;;9.68;3.70;;;17.80;73.00;;;;;;5078190;28;20052;-61
2022/06/19 01:52:30;;;;;;;12.93;3.80;;;17.80;73.60;;;;;;5077391;28;20381;-62
2022/06/19 01:55:11;;;;;;;12.55;3.85;;;17.80;74.20;;;;;;5097177;28;20060;-65
2022/06/19 01:57:42;;;;;;;12.63;3.88;;;17.80;73.60;;;;;;5097254;28;20056;-61
2022/06/19 02:00:14;;;;;;;10.57;3.75;;;17.80;74.60;;;;;;5086985;28;20032;-62
2022/06/19 02:02:45;;;;;;;12.57;3.78;;;17.80;74.00;;;;;;5077030;28;20048;-65
2022/06/19 02:05:11;;;;;;;12.52;3.47;;;17.80;74.60;;;;;;5077213;28;20059;-62
2022/06/19 02:07:37;;;;;;;12.25;4.20;;;17.80;74.30;;;;;;5076844;28;20033;-62
2022/06/19 02:10:04;;;;;;;10.38;3.15;;;17.80;74.10;;;;;;5088704;28;20028;-63
2022/06/19 02:12:32;;;;;;;11.65;3.55;;;17.80;74.70;;;;;;5080691;28;20021;-62
2022/06/19 02:15:01;;;;;;;13.25;4.13;;;17.80;74.50;;;;;;5076996;28;20032;-62
2022/06/19 02:17:43;;;;;;;10.30;3.85;;;17.90;74.70;;;;;;5077193;28;20062;-62
2022/06/19 02:20:10;;;;;;;10.65;3.28;;;17.90;74.90;;;;;;5077239;28;20081;-61
2022/06/19 02:22:36;;;;;;;10.13;3.40;;;17.90;74.10;;;;;;5077241;28;20031;-62
2022/06/19 02:25:03;;;;;;;9.70;3.38;;;18.00;74.80;;;;;;5077174;28;20032;-62
2022/06/19 02:27:32;;;;;;;10.85;3.38;;;18.00;74.10;;;;;;5084843;28;20048;-62
2022/06/19 02:30:01;;;;;;;10.82;3.40;;;17.90;74.90;;;;;;5096978;28;20050;-62
2022/06/19 02:32:46;;;;;;;9.30;3.55;;;17.90;75.40;;;;;;5097300;28;20096;-62
2022/06/19 02:35:17;;;;;;;10.73;3.83;;;17.90;76.00;;;;;;5097577;28;20020;-62
2022/06/19 02:37:47;;;;;;;9.90;3.63;;;17.80;75.40;;;;;;5097539;28;20020;-62
2022/06/19 02:40:33;;;;;;;9.50;3.53;;;17.90;75.80;;;;;;5097309;28;20027;-64
2022/06/19 02:42:59;;;;;;;11.68;3.83;;;17.90;76.70;;;;;;5097244;28;20044;-63
2022/06/19 02:45:28;;;;;;;11.93;3.70;;;17.80;75.40;;;;;;5087062;28;20060;-62
2022/06/19 02:47:56;;;;;;;9.00;3.85;;;17.90;76.00;;;;;;5076712;28;20028;-62
2022/06/19 02:50:28;;;;;;;12.98;4.15;;;17.80;75.80;;;;;;5077590;28;20016;-62
2022/06/19 02:52:54;;;;;;;11.95;3.88;;;17.80;76.30;;;;;;5080585;28;20072;-61
2022/06/19 02:55:21;;;;;;;9.73;3.28;;;17.80;76.80;;;;;;5080709;28;20040;-62
2022/06/19 02:57:48;;;;;;;9.38;4.28;;;17.80;76.30;;;;;;5080183;28;20051;-64
2022/06/19 03:00:34;;;;;;;12.27;4.03;;;17.80;76.50;;;;;;5080263;28;20719;-62
2022/06/19 03:03:05;;;;;;;9.88;3.85;;;17.80;76.80;;;;;;5080704;28;20390;-66
2022/06/19 03:05:31;;;;;;;10.98;4.07;;;17.80;76.90;;;;;;5092647;28;20406;-62
2022/06/19 03:07:57;;;;;;;8.95;3.70;;;17.80;77.10;;;;;;5100555;28;20016;-62
2022/06/19 03:10:23;;;;;;;10.27;4.20;;;17.70;77.10;;;;;;5100044;28;20077;-66
2022/06/19 03:12:49;;;;;;;11.02;4.05;;;17.70;77.20;;;;;;5099871;28;20024;-62
2022/06/19 03:15:16;;;;;;;10.73;4.03;;;17.70;76.90;;;;;;5100074;28;20028;-62
2022/06/19 03:17:43;;;;;;;10.25;3.80;;;17.70;76.80;;;;;;5100276;28;20471;-61
2022/06/19 03:20:13;;;;;;;13.18;4.13;;;17.80;76.50;;;;;;5096858;28;20538;-62
2022/06/19 03:22:39;;;;;;;11.00;3.95;;;17.80;76.30;;;;;;5079635;28;20135;-62
2022/06/19 03:25:06;;;;;;;11.68;4.05;;;17.80;76.60;;;;;;5079835;28;20066;-63
2022/06/19 03:27:31;;;;;;;8.73;4.00;;;17.70;76.70;;;;;;5079717;28;20105;-61
2022/06/19 03:29:57;;;;;;;9.48;3.50;;;17.70;76.70;;;;;;5080173;28;20028;-62
2022/06/19 03:32:23;;;;;;;10.05;3.90;;;17.60;77.30;;;;;;5079853;28;20019;-68
2022/06/19 03:34:48;;;;;;;11.35;4.10;;;17.60;77.80;;;;;;5079543;28;20047;-62
2022/06/19 03:37:14;;;;;;;11.43;4.10;;;17.60;77.60;;;;;;5079399;28;20028;-62
2022/06/19 03:39:40;;;;;;;10.90;3.90;;;17.60;77.50;;;;;;5081279;28;20031;-61
2022/06/19 03:42:07;;;;;;;10.43;4.50;;;17.60;77.40;;;;;;5099473;28;20099;-61
2022/06/19 03:44:33;;;;;;;12.20;4.60;;;17.60;77.80;;;;;;5099734;28;20023;-62
2022/06/19 03:46:59;;;;;;;10.25;4.57;;;17.50;77.80;;;;;;5099607;28;20456;-62
2022/06/19 03:49:26;;;;;;;10.10;4.35;;;17.50;77.70;;;;;;5099605;28;20439;-62
2022/06/19 03:51:52;;;;;;;10.20;4.65;;;17.50;77.80;;;;;;5099682;28;20099;-63
2022/06/19 03:54:18;;;;;;;8.38;4.28;;;17.50;78.10;;;;;;5088413;28;20032;-62
2022/06/19 03:56:44;;;;;;;11.68;4.28;;;17.50;77.30;;;;;;5096995;28;20048;-61
2022/06/19 03:59:12;;;;;;;9.25;3.92;;;17.50;78.40;;;;;;5099445;28;20032;-70
2022/06/19 04:01:40;;;;;;;10.23;4.00;;;17.50;78.70;;;;;;5098969;28;20024;-61
2022/06/19 04:04:06;;;;;;;10.93;4.75;;;17.50;78.90;;;;;;5099011;28;20032;-62
2022/06/19 04:06:35;;;;;;;8.85;4.30;;;17.50;77.80;;;;;;5099247;28;20027;-62
2022/06/19 04:09:03;;;;;;;9.70;4.15;;;17.50;78.50;;;;;;5099126;28;20509;-62
2022/06/19 04:11:30;;;;;;;10.18;3.72;;;17.50;78.10;;;;;;5099280;28;20410;-62
2022/06/19 04:13:56;;;;;;;10.13;4.30;;;17.50;78.30;;;;;;5098238;28;20036;-61
2022/06/19 04:16:28;;;;;;;7.82;3.40;;;17.50;78.90;;;;;;5098722;28;20105;-62
2022/06/19 04:18:55;;;;;;;7.25;3.60;;;17.60;79.40;;;;;;5099021;28;20476;-61
2022/06/19 04:21:24;;;;;;;8.13;4.20;;;17.60;78.70;;;;;;5099375;28;20054;-62
2022/06/19 04:23:54;;;;;;;10.43;4.65;;;17.50;79.20;;;;;;5098767;28;20036;-62
2022/06/19 04:26:21;;;;;;;9.73;4.53;;;17.60;78.80;;;;;;5099037;28;20017;-62
2022/06/19 04:28:47;;;;;;;8.15;4.28;;;17.50;78.90;;;;;;5098788;28;20016;-62
2022/06/19 04:31:13;;;;;;;9.07;4.10;;;17.50;78.80;;;;;;5097515;28;20027;-61
2022/06/19 04:33:39;;;;;;;8.90;3.60;;;17.50;79.20;;;;;;5098971;28;20027;-61
2022/06/19 04:36:11;;;;;;;8.23;4.07;;;17.50;79.40;;;;;;5086671;28;20036;-62
2022/06/19 04:38:38;;;;;;;8.90;3.95;;;17.50;78.80;;;;;;5094151;28;20055;-62
2022/06/19 04:41:05;;;;;;;9.73;3.88;;;17.50;78.90;;;;;;5078782;28;20025;-64
2022/06/19 04:43:31;;;;;;;10.82;4.35;;;17.50;79.40;;;;;;5078450;28;20021;-66
2022/06/19 04:46:03;;;;;;;7.72;3.33;;;17.50;79.10;;;;;;5078164;28;20466;-61
2022/06/19 04:48:30;;;;;;;8.00;3.67;;;17.50;78.90;;;;;;5077850;28;20027;-61
2022/06/19 04:50:56;;;;;;;7.22;3.42;;;17.50;78.90;;;;;;5078235;28;20064;-62
2022/06/19 04:53:21;;;;;;;10.35;4.20;;;17.50;78.60;;;;;;5078284;28;20024;-61
2022/06/19 04:55:47;;;;;;;9.13;3.95;;;17.50;78.40;;;;;;5078282;28;20345;-62
2022/06/19 04:58:13;;;;;;;7.43;3.90;;;17.50;78.50;;;;;;5077691;28;20037;-62
2022/06/19 05:00:40;;;;;;;10.38;4.25;;;17.50;78.40;;;;;;5077615;28;20381;-61
2022/06/19 05:03:07;;;;;;;8.68;3.88;;;17.50;78.80;;;;;;5089664;28;20035;-61
2022/06/19 05:05:33;;;;;;;12.80;4.63;;;17.50;78.70;;;;;;5098080;28;20494;-61
2022/06/19 05:07:59;;;;;;;10.07;4.50;;;17.50;78.50;;;;;;5098151;28;20030;-63
2022/06/19 05:10:25;;;;;;;10.18;4.13;;;17.50;78.70;;;;;;5098052;28;20103;-62
2022/06/19 05:12:56;;;;;;;11.15;4.25;;;17.50;79.10;;;;;;5097875;28;20016;-68
2022/06/19 05:15:23;;;;;;;10.25;3.67;;;17.50;79.20;;;;;;5098590;28;20031;-62
2022/06/19 05:17:49;;;;;;;8.57;3.90;;;17.50;79.70;;;;;;5098353;28;20028;-62
2022/06/19 05:20:15;;;;;;;10.52;3.72;;;17.40;79.10;;;;;;5097950;28;20093;-62
2022/06/19 05:22:40;;;;;;;10.18;3.90;;;17.40;79.30;;;;;;5098017;28;20043;-61
2022/06/19 05:25:08;;;;;;;10.63;4.18;;;17.50;79.40;;;;;;5097847;28;20028;-66
2022/06/19 05:27:40;;;;;;;9.40;4.00;;;17.40;79.50;;;;;;5097935;28;20020;-62
2022/06/19 05:30:08;;;;;;;9.88;4.10;;;17.40;80.10;;;;;;5097784;28;20056;-62
2022/06/19 05:32:33;;;;;;;10.43;4.45;;;17.30;80.20;;;;;;5090006;28;20021;-62
2022/06/19 05:34:59;;;;;;;10.90;4.20;;;17.30;80.90;;;;;;5077479;28;20021;-63
2022/06/19 05:37:25;;;;;;;11.30;4.28;;;17.30;80.70;;;;;;5077400;28;20495;-62
2022/06/19 05:39:52;;;;;;;14.27;4.50;;;17.30;80.30;;;;;;5077462;28;20029;-62
2022/06/19 05:42:17;;;;;;;8.43;4.03;;;17.40;81.40;;;;;;5077050;28;20036;-67
2022/06/19 05:44:43;;;;;;;8.20;4.10;;;17.40;80.50;;;;;;5077634;28;20032;-62
2022/06/19 05:47:10;;;;;;;8.82;4.10;;;17.40;80.60;;;;;;5077444;28;20027;-61
2022/06/19 05:49:35;;;;;;;11.85;4.63;;;17.40;80.50;;;;;;5077364;28;20039;-61
2022/06/19 05:52:03;;;;;;;9.43;3.90;;;17.40;80.10;;;;;;5077352;28;20021;-62
2022/06/19 05:54:29;;;;;;;8.60;4.10;;;17.30;80.90;;;;;;5091959;28;20034;-62
2022/06/19 05:56:55;;;;;;;8.05;3.67;;;17.30;80.40;;;;;;5097224;28;20048;-62
2022/06/19 05:59:21;;;;;;;10.00;3.60;;;17.30;81.00;;;;;;5097471;28;20032;-62
2022/06/19 06:01:47;;;;;;;8.13;3.50;;;17.30;81.30;;;;;;5096896;28;20391;-68
2022/06/19 06:04:13;;;;;;;9.55;3.83;;;17.20;80.60;;;;;;5095848;28;20480;-62
2022/06/19 06:06:41;;;;;;;8.57;3.58;;;17.20;80.70;;;;;;5097348;28;20028;-62
2022/06/19 06:09:07;;;;;;;9.50;3.65;;;17.20;81.00;;;;;;5097392;28;20104;-62
2022/06/19 06:11:33;;;;;;;13.98;4.22;;;17.20;81.50;;;;;;5097574;28;20441;-63
2022/06/19 06:13:59;;;;;;;6.88;3.22;;;17.20;80.90;;;;;;5097769;28;20027;-62
2022/06/19 06:16:25;;;;;;;7.82;3.83;;;17.20;81.10;;;;;;5097117;28;20078;-62
2022/06/19 06:18:52;;;;;;;9.15;3.33;;;17.20;81.40;;;;;;5097442;28;20063;-62
2022/06/19 06:21:23;;;;;;;9.95;3.30;;;17.20;81.40;;;;;;5097399;28;20360;-62
2022/06/19 06:23:49;;;;;;;8.85;3.20;;;17.20;82.00;;;;;;5085992;28;20032;-62
2022/06/19 06:26:23;;;;;;;8.73;3.08;;;17.20;81.50;;;;;;5079183;28;20036;-62
2022/06/19 06:28:50;;;;;;;7.32;2.45;;;17.20;81.20;;;;;;5081316;28;20028;-61
2022/06/19 06:31:17;;;;;;;7.18;2.70;;;17.30;80.80;;;;;;5081115;28;20029;-62
2022/06/19 06:33:43;;;;;;;6.40;2.42;;;17.30;81.60;;;;;;5081243;28;20032;-62
2022/06/19 06:36:10;;;;;;;6.20;2.40;;;17.30;81.10;;;;;;5080944;28;20096;-57
2022/06/19 06:38:36;;;;;;;4.60;1.90;;;17.30;80.50;;;;;;5080704;28;20029;-57
2022/06/19 06:41:04;;;;;;;4.72;1.90;;;17.30;80.50;;;;;;5080894;28;20510;-57
2022/06/19 06:43:31;;;;;;;5.32;1.80;;;17.20;80.90;;;;;;5080784;28;20028;-57
2022/06/19 06:46:04;;;;;;;5.30;1.92;;;17.20;80.60;;;;;;5080719;28;20025;-57
2022/06/19 06:48:31;;;;;;;7.97;2.55;;;17.20;80.10;;;;;;5094842;28;20472;-57
2022/06/19 06:50:56;;;;;;;3.35;1.63;;;17.20;81.20;;;;;;5082036;28;20036;-57
2022/06/19 06:53:22;;;;;;;4.65;1.55;;;17.20;80.00;;;;;;5080367;28;20020;-55
2022/06/19 06:55:48;;;;;;;4.85;1.80;;;17.20;80.50;;;;;;5080357;28;20096;-61
2022/06/19 06:58:13;;;;;;;4.38;1.90;;;17.20;80.70;;;;;;5080649;28;20079;-54
2022/06/19 07:00:40;;;;;;;3.17;1.40;;;17.20;80.90;;;;;;5080317;28;20476;-55
2022/06/19 07:03:06;;;;;;;3.38;1.95;;;17.20;80.80;;;;;;5080258;28;20388;-57
2022/06/19 07:05:32;;;;;;;4.75;1.60;;;17.20;81.00;;;;;;5080308;28;20025;-64
2022/06/19 07:07:59;;;;;;;6.80;1.80;;;17.20;80.90;;;;;;5080108;28;20397;-57
2022/06/19 07:10:25;;;;;;;2.55;1.58;;;17.20;80.60;;;;;;5079992;28;20028;-60
2022/06/19 07:12:51;;;;;;;5.88;1.83;;;17.20;80.40;;;;;;5080118;28;20025;-55
2022/06/19 07:15:17;;;;;;;5.55;1.67;;;17.20;80.00;;;;;;5079136;28;20020;-57
2022/06/19 07:17:42;;;;;;;4.78;1.60;;;17.20;79.50;;;;;;5087019;28;20163;-55
2022/06/19 07:20:09;;;;;;;5.93;1.70;;;17.20;79.20;;;;;;5098524;28;20036;-56
2022/06/19 07:22:36;;;;;;;4.40;1.70;;;17.20;79.50;;;;;;5099978;28;20062;-56
2022/06/19 07:25:04;;;;;;;4.45;1.60;;;17.20;80.60;;;;;;5099957;28;20020;-56
2022/06/19 07:27:29;;;;;;;3.42;1.50;;;17.20;79.50;;;;;;5099983;28;20032;-56
2022/06/19 07:29:55;;;;;;;2.15;1.40;;;17.20;79.40;;;;;;5099587;28;20062;-57
2022/06/19 07:32:21;;;;;;;3.55;1.63;;;17.20;79.50;;;;;;5099957;28;20379;-55
2022/06/19 07:34:47;;;;;;;2.67;1.52;;;17.20;79.50;;;;;;5099749;28;20017;-56
2022/06/19 07:37:14;;;;;;;3.42;1.70;;;17.20;79.70;;;;;;5098110;28;20107;-56
2022/06/19 07:39:41;;;;;;;4.07;2.22;;;17.10;79.20;;;;;;5099759;28;20085;-61
2022/06/19 07:42:08;;;;;;;4.32;1.98;;;17.10;79.20;;;;;;5088100;28;20039;-61
2022/06/19 07:44:39;;;;;;;5.82;1.73;;;17.10;79.20;;;;;;5079207;28;20032;-61
2022/06/19 07:50:09;;;;;;;8.75;2.55;;;17.20;80.50;;;;;;5079494;28;20023;-61
2022/06/19 07:52:40;;;;;;;6.00;1.70;;;17.20;80.60;;;;;;5079142;28;20036;-61
2022/06/19 07:55:07;;;;;;;4.85;1.70;;;17.20;81.50;;;;;;5086087;28;20096;-61
2022/06/19 07:57:33;;;;;;;8.45;2.25;;;17.20;81.00;;;;;;5099183;28;20385;-61
2022/06/19 07:59:59;;;;;;;6.38;2.13;;;17.20;80.80;;;;;;5099487;28;20032;-61
2022/06/19 08:02:25;;;;;;;4.20;1.60;;;17.20;80.80;;;;;;5099597;28;20111;-61
2022/06/19 08:04:52;;;;;;;3.88;1.70;;;17.20;81.40;;;;;;5099378;28;20032;-61
2022/06/19 08:07:18;;;;;;;3.78;1.33;;;17.20;80.50;;;;;;5099042;28;20030;-61
2022/06/19 08:09:45;;;;;;;4.43;1.60;;;17.20;80.90;;;;;;5098960;28;20095;-61
2022/06/19 08:12:11;;;;;;;3.42;1.83;;;17.20;80.80;;;;;;5087703;28;20032;-61
2022/06/19 08:14:38;;;;;;;3.03;1.50;;;17.10;80.40;;;;;;5078645;28;20043;-63
2022/06/19 08:17:04;;;;;;;4.70;1.65;;;17.10;81.60;;;;;;5078424;28;20024;-61
2022/06/19 08:19:30;;;;;;;9.05;1.52;;;17.10;81.20;;;;;;5078643;28;20063;-62
2022/06/19 08:21:56;;;;;;;3.28;1.20;;;17.10;81.30;;;;;;5078579;28;20476;-61
2022/06/19 08:24:22;;;;;;;3.42;1.20;;;17.10;81.00;;;;;;5078489;28;20071;-61
2022/06/19 08:27:06;;;;;;;2.17;1.20;;;17.00;81.70;;;;;;5089532;28;20119;-61
2022/06/19 08:29:33;;;;;;;2.47;1.50;;;17.00;81.30;;;;;;5098864;28;20031;-61
2022/06/19 08:31:59;;;;;;;2.33;1.40;;;17.00;81.90;;;;;;5098268;28;20042;-63
2022/06/19 08:34:26;;;;;;;2.80;1.20;;;17.00;81.90;;;;;;5098605;28;20410;-62
2022/06/19 08:36:52;;;;;;;5.10;1.33;;;17.00;81.90;;;;;;5098523;28;20024;-67
2022/06/19 08:39:20;;;;;;;2.95;1.27;;;17.00;82.20;;;;;;5098416;28;20077;-61
2022/06/19 08:42:12;;;;;;;3.33;1.30;;;17.00;81.60;;;;;;5098536;28;20028;-61
2022/06/19 08:44:53;;;;;;;4.55;1.52;;;17.00;82.10;;;;;;5098724;28;20032;-61
2022/06/19 08:47:19;;;;;;;2.78;1.20;;;17.10;81.60;;;;;;5092240;28;20078;-61
2022/06/19 08:50:11;;;;;;;0.93;0.80;;;17.10;81.90;;;;;;5090216;28;20032;-61
2022/06/19 08:53:00;;;;;;;1.52;0.80;;;17.00;81.10;;;;;;5080061;28;20496;-61
2022/06/19 08:55:35;;;;;;;1.48;0.77;;;17.10;81.20;;;;;;5078053;28;20069;-61
2022/06/19 08:58:22;;;;;;;3.35;1.27;;;17.10;80.90;;;;;;5089326;28;20071;-61
2022/06/19 09:01:18;;;;;;;2.22;0.80;;;17.00;81.10;;;;;;5098425;28;20020;-61
2022/06/19 09:07:02;;;;;;;3.47;1.00;;;17.00;81.50;;;;;;5097767;28;20108;-61
2022/06/19 09:10:07;;;;;;;2.03;0.77;;;17.10;82.30;;;;;;5098550;28;20414;-61
2022/06/19 09:12:55;;;;;;;2.05;1.00;;;17.20;83.20;;;;;;5098487;28;20047;-61
2022/06/19 09:15:35;;;;;;;3.80;1.38;;;17.30;82.70;;;;;;5098073;28;20559;-61
2022/06/19 09:18:08;;;;;;;2.33;1.05;;;17.40;82.60;;;;;;5092573;28;20060;-61
2022/06/19 09:20:42;;;;;;;2.10;1.07;;;17.50;82.40;;;;;;5077911;28;20024;-61
2022/06/19 09:23:11;;;;;;;2.20;1.02;;;17.50;81.90;;;;;;5077671;28;20364;-61
2022/06/19 09:25:56;;;;;;;3.03;1.33;;;17.60;81.70;;;;;;5077741;28;20032;-62
2022/06/19 09:28:37;;;;;;;3.08;1.38;;;17.70;81.70;;;;;;5076492;28;20143;-61
2022/06/19 09:31:22;;;;;;;6.75;3.40;;;17.90;81.80;;;;;;5076002;28;20107;-62
2022/06/19 09:34:03;;;;;;;6.60;3.10;;;17.90;81.10;;;;;;5077295;28;20020;-62
2022/06/19 09:36:53;;;;;;;9.50;3.80;;;17.90;80.90;;;;;;5077482;28;20024;-62
2022/06/19 09:39:50;;;;;;;2.83;1.70;;;18.00;80.40;;;;;;5077607;28;20029;-70
2022/06/19 09:42:21;;;;;;;4.90;1.67;;;18.00;80.30;;;;;;5075807;28;20031;-62
2022/06/19 09:44:59;;;;;;;8.07;2.63;;;18.00;80.10;;;;;;5076222;28;20025;-62
2022/06/19 09:47:43;;;;;;;6.18;2.70;;;18.00;80.20;;;;;;5077092;28;20033;-62
2022/06/19 09:50:21;;;;;;;6.25;2.53;;;18.10;79.90;;;;;;5077245;28;20020;-66
2022/06/19 09:53:09;;;;;;;6.00;2.60;;;18.00;79.90;;;;;;5077815;28;20108;-62
2022/06/19 09:55:44;;;;;;;4.72;1.60;;;18.00;79.90;;;;;;5077792;28;20031;-61
2022/06/19 09:58:18;;;;;;;5.70;2.08;;;17.90;80.10;;;;;;5077022;28;20041;-62
2022/06/19 10:00:46;;;;;;;;;;;17.90;80.20;;;;;;5081215;28;20404;-67
2022/06/19 10:03:32;;;;;;;4.28;2.00;;;17.90;80.00;;;;;;5081217;28;19908;-62
2022/06/19 10:06:33;;;;;;;5.40;1.88;;;17.90;79.50;;;;;;5085078;28;20071;-62
2022/06/19 10:09:10;;;;;;;7.18;2.03;;;17.90;79.70;;;;;;5093668;28;20024;-61
2022/06/19 10:11:40;;;;;;;3.17;1.60;;;17.90;81.40;;;;;;5101458;28;20053;-65
2022/06/19 10:14:26;;;;;;;3.97;1.60;;;17.90;81.20;;;;;;5101179;28;20031;-68
2022/06/19 10:17:00;;;;;;;5.63;1.80;;;17.80;81.50;;;;;;5101231;28;20061;-63
2022/06/19 10:19:25;;;;;;;3.95;1.92;;;17.80;80.90;;;;;;5101586;28;20016;-61
2022/06/19 10:22:13;;;;;;;4.45;1.90;;;17.80;81.60;;;;;;5095340;28;20032;-61
2022/06/19 10:24:58;;;;;;;5.35;2.40;;;17.70;81.90;;;;;;5080795;28;20380;-61
2022/06/19 10:27:49;;;;;;;4.05;2.10;;;17.70;82.10;;;;;;5095916;28;20492;-61
2022/06/19 10:30:44;;;;;;;3.50;2.10;;;17.80;82.80;;;;;;5101097;28;20056;-61
2022/06/19 10:33:10;;;;;;;;;;;17.70;82.50;;;;;;5081668;28;20524;-65
2022/06/19 10:35:50;;;;;;;7.40;2.28;;;17.70;82.90;;;;;;5082400;28;19920;-62
2022/06/19 10:38:34;;;;;;;7.75;2.75;;;17.70;83.10;;;;;;5081942;28;20076;-62
2022/06/19 10:44:26;;;;;;;4.57;1.98;;;17.70;83.00;;;;;;5096785;28;20065;-62
2022/06/19 10:47:12;;;;;;;8.85;5.15;;;17.70;83.20;;;;;;5083592;28;20027;-61
2022/06/19 10:50:06;;;;;;;4.65;2.28;;;17.80;83.10;;;;;;5090669;28;20096;-62
2022/06/19 10:52:53;;;;;;;5.80;2.13;;;17.80;82.30;;;;;;5080690;28;20405;-62
2022/06/19 10:55:40;;;;;;;4.45;2.40;;;17.80;82.80;;;;;;5079256;28;20469;-62
2022/06/19 10:58:25;;;;;;;4.93;2.20;;;17.80;82.60;;;;;;5078782;28;20479;-61
2022/06/19 11:00:57;;;;;;;5.75;2.17;;;17.80;83.40;;;;;;5079426;28;20024;-62
2022/06/19 11:06:45;;;;;;;5.78;2.25;;;17.80;83.00;;;;;;5080141;28;20503;-67
2022/06/19 11:09:35;;;;;;;4.40;2.00;;;17.80;82.80;;;;;;5080128;28;20044;-67
2022/06/19 11:12:26;;;;;;;7.45;2.20;;;17.90;82.70;;;;;;5079615;28;20063;-64
2022/06/19 11:14:58;;;;;;;6.47;2.40;;;17.90;82.20;;;;;;5078776;28;20373;-62
2022/06/19 11:17:35;;;;;;;3.40;2.20;;;17.90;82.30;;;;;;5079008;28;20072;-61
2022/06/19 11:20:26;;;;;;;5.57;2.20;;;17.90;82.60;;;;;;5079061;28;20028;-62
2022/06/19 11:23:17;;;;;;;7.10;2.40;;;18.00;82.00;;;;;;5079136;28;20032;-61
2022/06/19 11:26:00;;;;;;;4.97;1.92;;;18.00;82.00;;;;;;5079761;28;20031;-62
2022/06/19 11:28:38;;;;;;;7.90;2.08;;;18.00;82.00;;;;;;5079313;28;20037;-62
2022/06/19 11:31:45;;;;;;;5.25;2.10;;;17.90;82.20;;;;;;5079821;28;20021;-63
2022/06/19 11:37:12;;;;;;;6.10;2.30;;;17.90;82.30;;;;;;5079791;28;20032;-62
2022/06/19 11:39:41;;;;;;;7.97;2.70;;;18.00;81.90;;;;;;5079888;28;20392;-61
2022/06/19 11:42:32;;;;;;;5.72;2.38;;;18.00;82.20;;;;;;5079886;28;20510;-62
2022/06/19 11:45:27;;;;;;;6.22;3.03;;;18.00;82.00;;;;;;5079654;28;20025;-65
2022/06/19 11:47:53;;;;;;;;;;;18.00;82.10;;;;;;5079849;28;20016;-62
2022/06/19 11:50:21;;;;;;;6.05;2.60;;;18.00;82.10;;;;;;5079533;28;19951;-61
2022/06/19 11:52:58;;;;;;;8.00;2.40;;;17.90;82.00;;;;;;5079258;28;20111;-62
2022/06/19 11:55:27;;;;;;;8.45;2.72;;;17.90;82.30;;;;;;5079569;28;20024;-62
2022/06/19 11:58:02;;;;;;;6.57;2.22;;;17.90;82.30;;;;;;5079072;28;20506;-66
2022/06/19 12:00:34;;;;;;;6.45;2.75;;;17.90;83.00;;;;;;5079286;28;20431;-62
2022/06/19 12:03:25;;;;;;;7.07;3.00;;;17.80;82.30;;;;;;5079219;28;20107;-64
2022/06/19 12:05:58;;;;;;;8.20;2.53;;;17.90;82.40;;;;;;5079309;28;20024;-62
2022/06/19 12:08:45;;;;;;;6.60;2.70;;;17.90;82.80;;;;;;5079168;28;20041;-72
2022/06/19 12:11:11;;;;;;;8.13;2.97;;;17.90;83.30;;;;;;5079332;28;20407;-62
2022/06/19 12:13:42;;;;;;;6.55;2.60;;;17.90;83.10;;;;;;5079176;28;20388;-62
2022/06/19 12:16:21;;;;;;;6.05;2.45;;;17.90;83.00;;;;;;5079021;28;20109;-65
2022/06/19 12:18:48;;;;;;;6.80;2.85;;;17.90;83.10;;;;;;5079060;28;20025;-62
2022/06/19 12:21:27;;;;;;;5.90;2.55;;;17.90;83.10;;;;;;5078782;28;20074;-62
2022/06/19 12:24:07;;;;;;;8.40;2.72;;;17.90;83.80;;;;;;5077969;28;20021;-62
2022/06/19 12:26:47;;;;;;;5.97;2.33;;;17.90;83.60;;;;;;5078872;28;20025;-62
2022/06/19 12:29:23;;;;;;;8.07;3.47;;;17.90;82.80;;;;;;5078708;28;20047;-61
2022/06/19 12:31:50;;;;;;;9.20;2.90;;;17.90;82.90;;;;;;5078439;28;20020;-62
2022/06/19 12:34:31;;;;;;;10.05;3.20;;;18.00;83.20;;;;;;5078448;28;20422;-62
2022/06/19 12:36:59;;;;;;;8.05;3.15;;;18.00;82.80;;;;;;5078556;28;20048;-67
2022/06/19 12:39:31;;;;;;;5.32;2.50;;;18.00;83.60;;;;;;5078758;28;20032;-61
2022/06/19 12:42:10;;;;;;;6.22;2.75;;;18.00;83.50;;;;;;5078746;28;20051;-65
2022/06/19 12:44:44;;;;;;;7.32;2.72;;;18.00;83.10;;;;;;5078358;28;20024;-65
2022/06/19 12:47:42;;;;;;;7.38;2.90;;;18.00;83.80;;;;;;5078360;28;20024;-62
2022/06/19 12:50:26;;;;;;;7.30;3.20;;;18.00;84.00;;;;;;5077474;28;20117;-61
2022/06/19 12:53:20;;;;;;;8.18;3.00;;;18.00;84.10;;;;;;5078226;28;20047;-61
2022/06/19 12:56:23;;;;;;;5.80;3.03;;;18.00;83.70;;;;;;5078163;28;20028;-62
2022/06/19 12:59:04;;;;;;;7.88;2.80;;;18.00;84.30;;;;;;5078320;28;20128;-62
2022/06/19 13:01:46;;;;;;;5.40;2.72;;;18.00;85.00;;;;;;5077821;28;20025;-62
2022/06/19 13:04:56;;;;;;;7.53;3.22;;;18.00;84.60;;;;;;5077761;28;20032;-67
2022/06/19 13:07:38;;;;;;;7.43;2.83;;;17.90;84.40;;;;;;5077433;28;20033;-65
2022/06/19 13:10:45;;;;;;;7.57;3.00;;;17.90;84.30;;;;;;5078050;28;20021;-62
2022/06/19 13:13:33;;;;;;;6.22;2.58;;;17.90;84.80;;;;;;5078047;28;20052;-62
2022/06/19 13:16:18;;;;;;;6.60;2.25;;;18.00;84.20;;;;;;5077812;28;20025;-68
2022/06/19 13:19:17;;;;;;;7.55;2.80;;;17.90;84.40;;;;;;5078037;28;20020;-61
2022/06/19 13:22:18;;;;;;;7.38;3.17;;;17.90;85.30;;;;;;5077389;28;20029;-62
2022/06/19 13:24:57;;;;;;;6.03;3.17;;;17.90;84.30;;;;;;5077059;28;20111;-62
2022/06/19 13:27:29;;;;;;;5.57;2.80;;;17.90;84.90;;;;;;5077180;28;20081;-62
2022/06/19 13:30:09;;;;;;;5.90;2.63;;;17.90;84.80;;;;;;5077937;28;20023;-67